sensor_id;sensor_type;location;lat;lon;timestamp;pressure;altitude;pressure_sealevel;temperature;humidity
49102;BME280;34913;47.520;19.186;2023-07-31T00:01:26;99566.91;;;18.18;100.00
49102;BME280;34913;47.520;19.186;2023-07-31T00:03:51;99576.34;;;18.14;100.00
49102;BME280;34913;47.520;19.186;2023-07-31T00:06:16;99568.19;;;18.07;100.00
49102;BME280;34913;47.520;19.186;2023-07-31T00:08:42;99570.41;;;18.04;100.00
49102;BME280;34913;47.520;19.186;2023-07-31T00:11:07;99576.13;;;18.01;100.00
49102;BME280;34913;47.520;19.186;2023-07-31T00:13:33;99568.56;;;18.04;100.00
49102;BME280;34913;47.520;19.186;2023-07-31T00:15:59;99566.91;;;18.03;100.00
49102;BME280;34913;47.520;19.186;2023-07-31T00:18:24;99575.16;;;18.02;100.00
49102;BME280;34913;47.520;19.186;2023-07-31T00:20:50;99574.41;;;17.93;99.98
49102;BME280;34913;47.520;19.186;2023-07-31T00:23:15;99577.09;;;17.93;100.00
49102;BME280;34913;47.520;19.186;2023-07-31T00:25:41;99573.63;;;17.84;100.00
49102;BME280;34913;47.520;19.186;2023-07-31T00:28:07;99566.16;;;17.80;100.00
49102;BME280;34913;47.520;19.186;2023-07-31T00:30:32;99570.59;;;17.88;100.00
49102;BME280;34913;47.520;19.186;2023-07-31T00:32:58;99574.22;;;17.95;100.00
49102;BME280;34913;47.520;19.186;2023-07-31T00:35:23;99569.75;;;17.87;100.00
49102;BME280;34913;47.520;19.186;2023-07-31T00:37:49;99580.84;;;17.84;100.00
49102;BME280;34913;47.520;19.186;2023-07-31T00:40:14;99574.84;;;17.82;100.00
49102;BME280;34913;47.520;19.186;2023-07-31T00:42:39;99573.47;;;17.86;100.00
49102;BME280;34913;47.520;19.186;2023-07-31T00:45:05;99570.94;;;17.84;100.00
49102;BME280;34913;47.520;19.186;2023-07-31T00:47:31;99572.72;;;17.77;100.00
49102;BME280;34913;47.520;19.186;2023-07-31T00:49:57;99581.81;;;17.68;100.00
49102;BME280;34913;47.520;19.186;2023-07-31T00:52:22;99574.69;;;17.61;100.00
49102;BME280;34913;47.520;19.186;2023-07-31T00:54:49;99572.81;;;17.61;100.00
49102;BME280;34913;47.520;19.186;2023-07-31T00:57:14;99579.22;;;17.60;100.00
49102;BME280;34913;47.520;19.186;2023-07-31T00:59:40;99582.06;;;17.58;100.00
49102;BME280;34913;47.520;19.186;2023-07-31T01:02:05;99577.28;;;17.54;100.00
49102;BME280;34913;47.520;19.186;2023-07-31T01:04:31;99574.41;;;17.55;100.00
49102;BME280;34913;47.520;19.186;2023-07-31T01:07:11;99575.59;;;17.53;100.00
49102;BME280;34913;47.520;19.186;2023-07-31T01:09:51;99576.97;;;17.49;100.00
49102;BME280;34913;47.520;19.186;2023-07-31T01:12:19;99576.66;;;17.44;100.00
49102;BME280;34913;47.520;19.186;2023-07-31T01:17:25;99572.69;;;17.40;100.00
49102;BME280;34913;47.520;19.186;2023-07-31T01:19:51;99574.38;;;17.41;100.00
49102;BME280;34913;47.520;19.186;2023-07-31T01:22:48;99567.53;;;17.38;100.00
49102;BME280;34913;47.520;19.186;2023-07-31T01:28:13;99569.25;;;17.31;100.00
49102;BME280;34913;47.520;19.186;2023-07-31T01:30:44;99574.63;;;17.31;100.00
49102;BME280;34913;47.520;19.186;2023-07-31T01:33:14;99572.59;;;17.33;100.00
49102;BME280;34913;47.520;19.186;2023-07-31T01:35:43;99575.38;;;17.40;100.00
49102;BME280;34913;47.520;19.186;2023-07-31T01:38:09;99572.31;;;17.43;100.00
49102;BME280;34913;47.520;19.186;2023-07-31T01:40:35;99571.69;;;17.41;100.00
49102;BME280;34913;47.520;19.186;2023-07-31T01:43:00;99572.97;;;17.45;100.00
49102;BME280;34913;47.520;19.186;2023-07-31T01:45:26;99578.81;;;17.48;100.00
49102;BME280;34913;47.520;19.186;2023-07-31T01:47:51;99574.03;;;17.58;100.00
49102;BME280;34913;47.520;19.186;2023-07-31T01:50:17;99575.81;;;17.66;100.00
49102;BME280;34913;47.520;19.186;2023-07-31T01:52:42;99574.59;;;17.69;100.00
49102;BME280;34913;47.520;19.186;2023-07-31T01:55:08;99578.63;;;17.73;100.00
49102;BME280;34913;47.520;19.186;2023-07-31T01:57:33;99565.41;;;17.71;100.00
49102;BME280;34913;47.520;19.186;2023-07-31T01:59:59;99571.13;;;17.83;100.00
49102;BME280;34913;47.520;19.186;2023-07-31T02:02:24;99564.75;;;17.84;100.00
49102;BME280;34913;47.520;19.186;2023-07-31T02:04:51;99558.19;;;17.87;100.00
49102;BME280;34913;47.520;19.186;2023-07-31T02:07:17;99554.94;;;17.91;100.00
49102;BME280;34913;47.520;19.186;2023-07-31T02:09:42;99555.75;;;17.92;100.00
49102;BME280;34913;47.520;19.186;2023-07-31T02:12:08;99555.22;;;17.96;100.00
49102;BME280;34913;47.520;19.186;2023-07-31T02:14:34;99566.78;;;17.97;100.00
49102;BME280;34913;47.520;19.186;2023-07-31T02:17:00;99559.66;;;18.04;100.00
49102;BME280;34913;47.520;19.186;2023-07-31T02:19:25;99556.50;;;18.15;100.00
49102;BME280;34913;47.520;19.186;2023-07-31T02:21:51;99552.25;;;18.21;100.00
49102;BME280;34913;47.520;19.186;2023-07-31T02:24:16;99551.41;;;18.20;100.00
49102;BME280;34913;47.520;19.186;2023-07-31T02:26:41;99559.28;;;18.22;100.00
49102;BME280;34913;47.520;19.186;2023-07-31T02:29:08;99553.91;;;18.22;100.00
49102;BME280;34913;47.520;19.186;2023-07-31T02:31:33;99556.97;;;18.19;100.00
49102;BME280;34913;47.520;19.186;2023-07-31T02:33:59;99557.34;;;18.16;100.00
49102;BME280;34913;47.520;19.186;2023-07-31T02:36:24;99560.84;;;18.16;100.00
49102;BME280;34913;47.520;19.186;2023-07-31T02:38:50;99561.69;;;18.17;100.00
49102;BME280;34913;47.520;19.186;2023-07-31T02:41:15;99560.31;;;18.21;100.00
49102;BME280;34913;47.520;19.186;2023-07-31T02:43:40;99564.84;;;18.20;100.00
49102;BME280;34913;47.520;19.186;2023-07-31T02:46:06;99560.94;;;18.23;100.00
49102;BME280;34913;47.520;19.186;2023-07-31T02:48:31;99563.28;;;18.26;100.00
49102;BME280;34913;47.520;19.186;2023-07-31T02:50:57;99565.19;;;18.32;99.88
49102;BME280;34913;47.520;19.186;2023-07-31T02:53:22;99568.47;;;18.27;100.00
49102;BME280;34913;47.520;19.186;2023-07-31T02:55:48;99567.97;;;18.24;100.00
49102;BME280;34913;47.520;19.186;2023-07-31T02:58:13;99555.75;;;18.21;100.00
49102;BME280;34913;47.520;19.186;2023-07-31T03:00:45;99570.59;;;18.17;99.94
49102;BME280;34913;47.520;19.186;2023-07-31T03:03:11;99574.13;;;18.18;100.00
49102;BME280;34913;47.520;19.186;2023-07-31T03:05:36;99583.00;;;18.18;100.00
49102;BME280;34913;47.520;19.186;2023-07-31T03:08:02;99584.69;;;18.19;100.00
49102;BME280;34913;47.520;19.186;2023-07-31T03:10:27;99584.56;;;18.12;100.00
49102;BME280;34913;47.520;19.186;2023-07-31T03:12:53;99591.50;;;18.07;100.00
49102;BME280;34913;47.520;19.186;2023-07-31T03:15:18;99591.31;;;18.08;99.88
49102;BME280;34913;47.520;19.186;2023-07-31T03:17:43;99602.84;;;18.02;100.00
49102;BME280;34913;47.520;19.186;2023-07-31T03:20:09;99598.19;;;17.96;100.00
49102;BME280;34913;47.520;19.186;2023-07-31T03:22:35;99600.88;;;17.96;100.00
49102;BME280;34913;47.520;19.186;2023-07-31T03:25:01;99601.81;;;18.03;100.00
49102;BME280;34913;47.520;19.186;2023-07-31T03:27:27;99603.66;;;18.03;100.00
49102;BME280;34913;47.520;19.186;2023-07-31T03:29:52;99601.31;;;18.00;99.93
49102;BME280;34913;47.520;19.186;2023-07-31T03:32:18;99611.72;;;18.03;99.87
49102;BME280;34913;47.520;19.186;2023-07-31T03:34:43;99613.69;;;18.09;99.38
49102;BME280;34913;47.520;19.186;2023-07-31T03:37:09;99611.25;;;18.14;99.06
49102;BME280;34913;47.520;19.186;2023-07-31T03:39:35;99600.31;;;18.16;98.71
49102;BME280;34913;47.520;19.186;2023-07-31T03:42:00;99606.16;;;18.19;98.55
49102;BME280;34913;47.520;19.186;2023-07-31T03:44:25;99613.41;;;18.19;98.64
49102;BME280;34913;47.520;19.186;2023-07-31T03:46:51;99615.25;;;18.18;98.77
49102;BME280;34913;47.520;19.186;2023-07-31T03:49:16;99621.72;;;18.24;98.25
49102;BME280;34913;47.520;19.186;2023-07-31T03:51:42;99611.63;;;18.26;97.94
49102;BME280;34913;47.520;19.186;2023-07-31T03:54:08;99614.22;;;18.34;97.21
49102;BME280;34913;47.520;19.186;2023-07-31T03:56:33;99627.28;;;18.37;97.21
49102;BME280;34913;47.520;19.186;2023-07-31T03:58:59;99627.91;;;18.39;96.80
49102;BME280;34913;47.520;19.186;2023-07-31T04:01:24;99629.22;;;18.43;96.87
49102;BME280;34913;47.520;19.186;2023-07-31T04:03:50;99630.34;;;18.49;96.19
49102;BME280;34913;47.520;19.186;2023-07-31T04:06:15;99625.81;;;18.49;96.45
49102;BME280;34913;47.520;19.186;2023-07-31T04:08:46;99626.78;;;18.48;95.70
49102;BME280;34913;47.520;19.186;2023-07-31T04:11:11;99619.28;;;18.58;96.23
49102;BME280;34913;47.520;19.186;2023-07-31T04:13:38;99622.81;;;18.74;95.15
49102;BME280;34913;47.520;19.186;2023-07-31T04:16:03;99626.22;;;18.97;95.04
49102;BME280;34913;47.520;19.186;2023-07-31T04:18:29;99622.13;;;19.22;92.20
49102;BME280;34913;47.520;19.186;2023-07-31T04:20:56;99616.03;;;19.57;91.51
49102;BME280;34913;47.520;19.186;2023-07-31T04:23:24;99613.81;;;19.88;88.43
49102;BME280;34913;47.520;19.186;2023-07-31T04:25:49;99621.72;;;20.24;85.96
49102;BME280;34913;47.520;19.186;2023-07-31T04:28:14;99620.13;;;20.36;84.47
49102;BME280;34913;47.520;19.186;2023-07-31T04:30:40;99613.22;;;20.55;82.56
49102;BME280;34913;47.520;19.186;2023-07-31T04:33:05;99616.31;;;20.59;82.42
49102;BME280;34913;47.520;19.186;2023-07-31T04:35:31;99617.13;;;20.46;82.56
49102;BME280;34913;47.520;19.186;2023-07-31T04:37:56;99620.78;;;20.39;82.64
49102;BME280;34913;47.520;19.186;2023-07-31T04:40:21;99612.66;;;20.32;82.82
49102;BME280;34913;47.520;19.186;2023-07-31T04:42:47;99627.78;;;20.33;82.52
49102;BME280;34913;47.520;19.186;2023-07-31T04:45:14;99623.06;;;20.42;81.59
49102;BME280;34913;47.520;19.186;2023-07-31T04:47:39;99618.13;;;20.45;82.20
49102;BME280;34913;47.520;19.186;2023-07-31T04:50:05;99620.47;;;20.55;80.26
49102;BME280;34913;47.520;19.186;2023-07-31T04:52:31;99619.66;;;20.61;80.02
49102;BME280;34913;47.520;19.186;2023-07-31T04:54:56;99623.56;;;20.52;79.69
49102;BME280;34913;47.520;19.186;2023-07-31T04:57:22;99630.25;;;20.62;79.38
49102;BME280;34913;47.520;19.186;2023-07-31T04:59:47;99635.91;;;20.74;78.15
49102;BME280;34913;47.520;19.186;2023-07-31T05:02:12;99626.72;;;20.62;78.48
49102;BME280;34913;47.520;19.186;2023-07-31T05:04:41;99631.84;;;20.50;78.87
49102;BME280;34913;47.520;19.186;2023-07-31T05:07:06;99634.50;;;20.44;77.83
49102;BME280;34913;47.520;19.186;2023-07-31T05:09:31;99642.50;;;20.37;77.97
49102;BME280;34913;47.520;19.186;2023-07-31T05:11:57;99633.56;;;20.30;78.51
49102;BME280;34913;47.520;19.186;2023-07-31T05:14:22;99636.53;;;20.42;77.78
49102;BME280;34913;47.520;19.186;2023-07-31T05:16:48;99638.28;;;20.21;76.99
49102;BME280;34913;47.520;19.186;2023-07-31T05:19:13;99641.19;;;20.20;77.24
49102;BME280;34913;47.520;19.186;2023-07-31T05:21:39;99641.38;;;20.18;75.97
49102;BME280;34913;47.520;19.186;2023-07-31T05:24:05;99646.75;;;20.18;75.52
49102;BME280;34913;47.520;19.186;2023-07-31T05:26:30;99646.97;;;20.17;75.33
49102;BME280;34913;47.520;19.186;2023-07-31T05:28:55;99649.09;;;20.28;74.30
49102;BME280;34913;47.520;19.186;2023-07-31T05:31:21;99647.19;;;20.50;72.65
49102;BME280;34913;47.520;19.186;2023-07-31T05:33:47;99654.97;;;20.73;73.40
49102;BME280;34913;47.520;19.186;2023-07-31T05:36:15;99659.00;;;20.90;69.06
49102;BME280;34913;47.520;19.186;2023-07-31T05:38:41;99653.22;;;21.00;68.59
49102;BME280;34913;47.520;19.186;2023-07-31T05:41:07;99653.38;;;20.91;68.68
49102;BME280;34913;47.520;19.186;2023-07-31T05:43:32;99648.66;;;21.07;68.08
49102;BME280;34913;47.520;19.186;2023-07-31T05:45:58;99653.97;;;21.55;64.53
49102;BME280;34913;47.520;19.186;2023-07-31T05:48:23;99653.38;;;21.79;63.74
49102;BME280;34913;47.520;19.186;2023-07-31T05:50:48;99649.41;;;21.95;63.51
49102;BME280;34913;47.520;19.186;2023-07-31T05:53:14;99646.31;;;21.85;61.29
49102;BME280;34913;47.520;19.186;2023-07-31T05:55:39;99644.84;;;21.69;61.54
49102;BME280;34913;47.520;19.186;2023-07-31T05:58:05;99650.69;;;21.66;62.52
49102;BME280;34913;47.520;19.186;2023-07-31T06:00:30;99659.00;;;21.78;62.07
49102;BME280;34913;47.520;19.186;2023-07-31T06:02:56;99657.31;;;22.03;60.89
49102;BME280;34913;47.520;19.186;2023-07-31T06:05:21;99650.66;;;22.25;60.76
49102;BME280;34913;47.520;19.186;2023-07-31T06:07:47;99657.25;;;22.49;60.44
49102;BME280;34913;47.520;19.186;2023-07-31T06:10:12;99663.28;;;22.58;58.92
49102;BME280;34913;47.520;19.186;2023-07-31T06:12:38;99652.31;;;22.33;58.68
49102;BME280;34913;47.520;19.186;2023-07-31T06:15:04;99654.78;;;22.41;58.43
49102;BME280;34913;47.520;19.186;2023-07-31T06:17:29;99652.84;;;22.68;59.17
49102;BME280;34913;47.520;19.186;2023-07-31T06:19:56;99657.63;;;23.24;56.12
49102;BME280;34913;47.520;19.186;2023-07-31T06:22:21;99663.56;;;23.39;56.06
49102;BME280;34913;47.520;19.186;2023-07-31T06:24:47;99661.31;;;23.30;55.16
49102;BME280;34913;47.520;19.186;2023-07-31T06:27:12;99666.97;;;23.22;56.13
49102;BME280;34913;47.520;19.186;2023-07-31T06:29:38;99665.22;;;23.02;57.41
49102;BME280;34913;47.520;19.186;2023-07-31T06:32:03;99662.56;;;22.82;57.03
49102;BME280;34913;47.520;19.186;2023-07-31T06:34:29;99664.06;;;22.85;56.35
49102;BME280;34913;47.520;19.186;2023-07-31T06:36:56;99664.19;;;22.97;56.24
49102;BME280;34913;47.520;19.186;2023-07-31T06:39:21;99667.44;;;23.19;56.70
49102;BME280;34913;47.520;19.186;2023-07-31T06:41:47;99671.41;;;23.16;56.66
49102;BME280;34913;47.520;19.186;2023-07-31T06:44:12;99670.34;;;23.24;54.57
49102;BME280;34913;47.520;19.186;2023-07-31T06:46:37;99672.28;;;23.42;54.04
49102;BME280;34913;47.520;19.186;2023-07-31T06:49:03;99667.00;;;23.53;54.71
49102;BME280;34913;47.520;19.186;2023-07-31T06:51:28;99675.69;;;23.68;52.56
49102;BME280;34913;47.520;19.186;2023-07-31T06:53:56;99664.56;;;23.77;53.62
49102;BME280;34913;47.520;19.186;2023-07-31T06:56:22;99672.53;;;23.72;52.82
49102;BME280;34913;47.520;19.186;2023-07-31T06:58:47;99671.88;;;23.76;52.98
49102;BME280;34913;47.520;19.186;2023-07-31T07:01:13;99674.56;;;23.76;53.10
49102;BME280;34913;47.520;19.186;2023-07-31T07:03:38;99677.00;;;23.53;53.94
49102;BME280;34913;47.520;19.186;2023-07-31T07:06:04;99679.91;;;23.20;52.85
49102;BME280;34913;47.520;19.186;2023-07-31T07:08:29;99672.63;;;23.20;53.90
49102;BME280;34913;47.520;19.186;2023-07-31T07:10:55;99687.56;;;23.29;52.61
49102;BME280;34913;47.520;19.186;2023-07-31T07:13:21;99681.19;;;23.17;54.22
49102;BME280;34913;47.520;19.186;2023-07-31T07:15:50;99679.91;;;23.20;53.72
49102;BME280;34913;47.520;19.186;2023-07-31T07:18:15;99680.78;;;23.13;54.10
49102;BME280;34913;47.520;19.186;2023-07-31T07:20:52;99686.81;;;23.16;55.47
49102;BME280;34913;47.520;19.186;2023-07-31T07:23:18;99689.13;;;23.12;55.59
49102;BME280;34913;47.520;19.186;2023-07-31T07:25:45;99693.47;;;23.13;56.68
49102;BME280;34913;47.520;19.186;2023-07-31T07:28:11;99686.84;;;23.09;56.60
49102;BME280;34913;47.520;19.186;2023-07-31T07:30:36;99686.81;;;23.16;56.57
49102;BME280;34913;47.520;19.186;2023-07-31T07:33:02;99689.06;;;23.25;56.25
49102;BME280;34913;47.520;19.186;2023-07-31T07:35:28;99685.75;;;23.23;55.82
49102;BME280;34913;47.520;19.186;2023-07-31T07:37:53;99683.03;;;23.61;55.87
49102;BME280;34913;47.520;19.186;2023-07-31T07:40:19;99688.25;;;23.88;54.38
49102;BME280;34913;47.520;19.186;2023-07-31T07:42:44;99686.00;;;24.10;51.26
49102;BME280;34913;47.520;19.186;2023-07-31T07:45:10;99683.91;;;24.30;49.11
49102;BME280;34913;47.520;19.186;2023-07-31T07:47:35;99679.31;;;24.31;48.74
49102;BME280;34913;47.520;19.186;2023-07-31T07:50:01;99680.50;;;24.41;48.62
49102;BME280;34913;47.520;19.186;2023-07-31T07:52:26;99676.56;;;24.37;49.57
49102;BME280;34913;47.520;19.186;2023-07-31T07:54:52;99687.66;;;24.72;48.19
49102;BME280;34913;47.520;19.186;2023-07-31T07:57:17;99681.25;;;25.03;46.12
49102;BME280;34913;47.520;19.186;2023-07-31T07:59:43;99677.81;;;25.26;43.70
49102;BME280;34913;47.520;19.186;2023-07-31T08:02:09;99679.28;;;25.29;44.84
49102;BME280;34913;47.520;19.186;2023-07-31T08:04:34;99671.84;;;25.06;43.74
49102;BME280;34913;47.520;19.186;2023-07-31T08:06:59;99677.09;;;25.01;43.33
49102;BME280;34913;47.520;19.186;2023-07-31T08:09:25;99676.88;;;24.84;43.90
49102;BME280;34913;47.520;19.186;2023-07-31T08:11:50;99672.91;;;24.00;45.08
49102;BME280;34913;47.520;19.186;2023-07-31T08:14:16;99684.59;;;23.76;47.34
49102;BME280;34913;47.520;19.186;2023-07-31T08:16:41;99680.50;;;23.66;47.35
49102;BME280;34913;47.520;19.186;2023-07-31T08:19:07;99681.72;;;23.95;47.46
49102;BME280;34913;47.520;19.186;2023-07-31T08:21:32;99683.59;;;24.45;45.40
49102;BME280;34913;47.520;19.186;2023-07-31T08:23:57;99680.50;;;24.78;44.68
49102;BME280;34913;47.520;19.186;2023-07-31T08:26:23;99687.13;;;25.19;43.60
49102;BME280;34913;47.520;19.186;2023-07-31T08:28:48;99691.25;;;25.51;41.89
49102;BME280;34913;47.520;19.186;2023-07-31T08:31:14;99690.63;;;25.68;42.55
49102;BME280;34913;47.520;19.186;2023-07-31T08:33:39;99671.06;;;25.89;41.68
49102;BME280;34913;47.520;19.186;2023-07-31T08:36:07;99686.44;;;25.83;40.58
49102;BME280;34913;47.520;19.186;2023-07-31T08:38:33;99677.78;;;25.86;40.21
49102;BME280;34913;47.520;19.186;2023-07-31T08:40:58;99687.28;;;26.07;40.94
49102;BME280;34913;47.520;19.186;2023-07-31T08:43:27;99672.97;;;26.35;41.39
49102;BME280;34913;47.520;19.186;2023-07-31T08:45:53;99681.00;;;26.54;40.59
49102;BME280;34913;47.520;19.186;2023-07-31T08:48:20;99677.22;;;26.66;39.07
49102;BME280;34913;47.520;19.186;2023-07-31T08:50:45;99674.16;;;26.63;39.32
49102;BME280;34913;47.520;19.186;2023-07-31T08:53:11;99673.91;;;26.29;39.72
49102;BME280;34913;47.520;19.186;2023-07-31T08:55:38;99671.44;;;26.51;39.97
49102;BME280;34913;47.520;19.186;2023-07-31T08:58:04;99671.78;;;26.66;38.63
49102;BME280;34913;47.520;19.186;2023-07-31T09:00:31;99674.84;;;26.70;39.51
49102;BME280;34913;47.520;19.186;2023-07-31T09:03:03;99666.84;;;26.92;39.55
49102;BME280;34913;47.520;19.186;2023-07-31T09:05:30;99669.34;;;27.05;40.06
49102;BME280;34913;47.520;19.186;2023-07-31T09:07:57;99656.91;;;26.97;40.51
49102;BME280;34913;47.520;19.186;2023-07-31T09:10:23;99671.00;;;27.06;39.46
49102;BME280;34913;47.520;19.186;2023-07-31T09:12:50;99657.66;;;27.21;38.50
49102;BME280;34913;47.520;19.186;2023-07-31T09:15:17;99657.41;;;26.94;38.49
49102;BME280;34913;47.520;19.186;2023-07-31T09:17:42;99656.91;;;26.97;38.90
49102;BME280;34913;47.520;19.186;2023-07-31T09:20:21;99655.00;;;27.10;38.78
49102;BME280;34913;47.520;19.186;2023-07-31T09:22:47;99662.00;;;27.34;37.78
49102;BME280;34913;47.520;19.186;2023-07-31T09:25:21;99659.09;;;27.41;37.72
49102;BME280;34913;47.520;19.186;2023-07-31T09:27:57;99653.63;;;27.24;37.32
49102;BME280;34913;47.520;19.186;2023-07-31T09:30:23;99655.88;;;27.27;37.25
49102;BME280;34913;47.520;19.186;2023-07-31T09:32:50;99658.78;;;27.37;38.18
49102;BME280;34913;47.520;19.186;2023-07-31T09:35:27;99656.44;;;27.29;38.47
49102;BME280;34913;47.520;19.186;2023-07-31T09:37:55;99661.66;;;27.31;37.34
49102;BME280;34913;47.520;19.186;2023-07-31T09:40:33;99663.28;;;27.32;37.07
49102;BME280;34913;47.520;19.186;2023-07-31T09:43:00;99661.84;;;27.12;37.26
49102;BME280;34913;47.520;19.186;2023-07-31T09:45:27;99654.81;;;26.88;37.78
49102;BME280;34913;47.520;19.186;2023-07-31T09:47:53;99655.97;;;26.92;37.60
49102;BME280;34913;47.520;19.186;2023-07-31T09:50:21;99645.19;;;26.97;37.89
49102;BME280;34913;47.520;19.186;2023-07-31T09:52:47;99650.56;;;27.20;37.10
49102;BME280;34913;47.520;19.186;2023-07-31T09:55:13;99651.53;;;27.14;37.65
49102;BME280;34913;47.520;19.186;2023-07-31T09:57:40;99652.94;;;27.17;37.28
49102;BME280;34913;47.520;19.186;2023-07-31T10:00:08;99641.50;;;27.03;37.75
49102;BME280;34913;47.520;19.186;2023-07-31T10:02:36;99644.44;;;27.13;37.82
49102;BME280;34913;47.520;19.186;2023-07-31T10:05:03;99652.75;;;27.35;36.86
49102;BME280;34913;47.520;19.186;2023-07-31T10:07:30;99652.66;;;27.47;38.14
49102;BME280;34913;47.520;19.186;2023-07-31T10:10:00;99646.22;;;27.36;37.14
49102;BME280;34913;47.520;19.186;2023-07-31T10:12:26;99651.38;;;27.49;38.53
49102;BME280;34913;47.520;19.186;2023-07-31T10:14:55;99643.25;;;27.54;38.52
49102;BME280;34913;47.520;19.186;2023-07-31T10:17:22;99647.63;;;27.39;37.81
49102;BME280;34913;47.520;19.186;2023-07-31T10:19:49;99643.94;;;27.45;36.93
49102;BME280;34913;47.520;19.186;2023-07-31T10:22:15;99646.50;;;27.51;37.00
49102;BME280;34913;47.520;19.186;2023-07-31T10:24:42;99643.19;;;27.49;36.83
49102;BME280;34913;47.520;19.186;2023-07-31T10:27:09;99648.00;;;27.59;37.04
49102;BME280;34913;47.520;19.186;2023-07-31T10:29:36;99651.38;;;27.49;37.35
49102;BME280;34913;47.520;19.186;2023-07-31T10:32:04;99638.78;;;27.48;36.53
49102;BME280;34913;47.520;19.186;2023-07-31T10:34:36;99642.25;;;27.27;37.42
49102;BME280;34913;47.520;19.186;2023-07-31T10:42:30;99640.47;;;27.49;37.18
49102;BME280;34913;47.520;19.186;2023-07-31T10:45:39;99643.25;;;27.54;37.64
49102;BME280;34913;47.520;19.186;2023-07-31T10:47:46;99634.81;;;27.39;38.69
49102;BME280;34913;47.520;19.186;2023-07-31T10:52:48;99640.78;;;27.53;37.64
49102;BME280;34913;47.520;19.186;2023-07-31T10:55:40;99627.84;;;27.60;38.70
49102;BME280;34913;47.520;19.186;2023-07-31T10:58:13;99638.63;;;27.67;38.89
49102;BME280;34913;47.520;19.186;2023-07-31T11:00:44;99635.38;;;27.70;38.03
49102;BME280;34913;47.520;19.186;2023-07-31T11:03:12;99631.25;;;28.01;39.85
49102;BME280;34913;47.520;19.186;2023-07-31T11:05:59;99630.34;;;27.78;38.76
49102;BME280;34913;47.520;19.186;2023-07-31T11:08:27;99639.47;;;27.10;40.64
49102;BME280;34913;47.520;19.186;2023-07-31T11:13:28;99625.00;;;27.38;42.15
49102;BME280;34913;47.520;19.186;2023-07-31T11:15:54;99617.38;;;27.23;41.50
49102;BME280;34913;47.520;19.186;2023-07-31T11:18:19;99616.97;;;27.32;42.12
49102;BME280;34913;47.520;19.186;2023-07-31T11:20:45;99616.69;;;27.62;41.05
49102;BME280;34913;47.520;19.186;2023-07-31T11:23:11;99605.94;;;27.55;39.58
49102;BME280;34913;47.520;19.186;2023-07-31T11:25:38;99601.78;;;27.36;40.64
49102;BME280;34913;47.520;19.186;2023-07-31T11:28:11;99605.13;;;27.09;40.04
49102;BME280;34913;47.520;19.186;2023-07-31T11:30:37;99604.97;;;26.76;39.97
49102;BME280;34913;47.520;19.186;2023-07-31T11:33:04;99605.19;;;26.86;40.22
49102;BME280;34913;47.520;19.186;2023-07-31T11:38:11;99599.41;;;26.82;41.44
49102;BME280;34913;47.520;19.186;2023-07-31T11:40:43;99603.06;;;27.16;39.43
49102;BME280;34913;47.520;19.186;2023-07-31T11:43:10;99604.00;;;27.22;40.59
49102;BME280;34913;47.520;19.186;2023-07-31T11:45:39;99602.84;;;27.18;39.23
49102;BME280;34913;47.520;19.186;2023-07-31T11:48:05;99607.91;;;27.26;39.26
49102;BME280;34913;47.520;19.186;2023-07-31T11:50:33;99598.53;;;27.22;39.48
49102;BME280;34913;47.520;19.186;2023-07-31T11:53:04;99601.44;;;27.32;38.64
49102;BME280;34913;47.520;19.186;2023-07-31T11:55:32;99591.44;;;27.21;37.71
49102;BME280;34913;47.520;19.186;2023-07-31T11:57:58;99594.59;;;26.61;39.80
49102;BME280;34913;47.520;19.186;2023-07-31T12:00:25;99591.19;;;26.94;40.58
49102;BME280;34913;47.520;19.186;2023-07-31T12:02:51;99583.84;;;27.23;41.92
49102;BME280;34913;47.520;19.186;2023-07-31T12:05:17;99593.63;;;27.52;39.41
49102;BME280;34913;47.520;19.186;2023-07-31T12:07:50;99589.84;;;27.08;38.97
49102;BME280;34913;47.520;19.186;2023-07-31T12:10:29;99586.25;;;27.36;38.39
49102;BME280;34913;47.520;19.186;2023-07-31T12:13:06;99586.00;;;27.21;38.74
49102;BME280;34913;47.520;19.186;2023-07-31T12:15:42;99578.81;;;27.48;39.42
49102;BME280;34913;47.520;19.186;2023-07-31T12:18:26;99579.19;;;27.69;37.05
49102;BME280;34913;47.520;19.186;2023-07-31T12:21:00;99564.16;;;27.49;38.16
49102;BME280;34913;47.520;19.186;2023-07-31T12:23:31;99571.25;;;27.50;39.72
49102;BME280;34913;47.520;19.186;2023-07-31T12:28:35;99560.50;;;27.77;38.50
49102;BME280;34913;47.520;19.186;2023-07-31T12:31:02;99562.00;;;27.85;38.82
49102;BME280;34913;47.520;19.186;2023-07-31T12:33:35;99556.72;;;27.78;38.40
49102;BME280;34913;47.520;19.186;2023-07-31T12:36:08;99561.16;;;27.85;39.15
49102;BME280;34913;47.520;19.186;2023-07-31T12:38:34;99553.25;;;27.83;38.35
49102;BME280;34913;47.520;19.186;2023-07-31T12:40:59;99563.97;;;27.90;37.93
49102;BME280;34913;47.520;19.186;2023-07-31T12:43:25;99560.66;;;27.88;36.51
49102;BME280;34913;47.520;19.186;2023-07-31T12:45:51;99564.28;;;27.93;38.38
49102;BME280;34913;47.520;19.186;2023-07-31T12:48:16;99556.09;;;27.93;36.29
49102;BME280;34913;47.520;19.186;2023-07-31T12:50:41;99550.25;;;27.85;37.89
49102;BME280;34913;47.520;19.186;2023-07-31T12:53:07;99543.94;;;28.01;37.38
49102;BME280;34913;47.520;19.186;2023-07-31T12:55:33;99527.63;;;27.84;36.70
49102;BME280;34913;47.520;19.186;2023-07-31T12:58:00;99540.50;;;27.89;37.53
49102;BME280;34913;47.520;19.186;2023-07-31T13:00:25;99542.59;;;27.81;37.58
49102;BME280;34913;47.520;19.186;2023-07-31T13:02:51;99533.75;;;27.58;37.30
49102;BME280;34913;47.520;19.186;2023-07-31T13:05:16;99530.09;;;27.52;38.62
49102;BME280;34913;47.520;19.186;2023-07-31T13:07:42;99530.19;;;27.57;37.40